sensor_id;sensor_type;location;lat;lon;timestamp;P1;durP1;ratioP1;P2;durP2;ratioP2
48963;SDS011;34776;48.180;16.420;2022-09-27T00:00:37;3.90;;;3.50;;
48963;SDS011;34776;48.180;16.420;2022-09-27T00:03:05;5.25;;;3.80;;
48963;SDS011;34776;48.180;16.420;2022-09-27T00:05:30;4.50;;;4.10;;
48963;SDS011;34776;48.180;16.420;2022-09-27T00:07:56;4.32;;;3.90;;
48963;SDS011;34776;48.180;16.420;2022-09-27T00:10:22;5.95;;;4.32;;
48963;SDS011;34776;48.180;16.420;2022-09-27T00:12:48;4.50;;;4.10;;
48963;SDS011;34776;48.180;16.420;2022-09-27T00:15:13;4.78;;;3.88;;
48963;SDS011;34776;48.180;16.420;2022-09-27T00:17:39;4.40;;;3.95;;
48963;SDS011;34776;48.180;16.420;2022-09-27T00:20:05;4.97;;;3.78;;
48963;SDS011;34776;48.180;16.420;2022-09-27T00:22:32;4.22;;;3.58;;
48963;SDS011;34776;48.180;16.420;2022-09-27T00:24:58;4.28;;;3.67;;
48963;SDS011;34776;48.180;16.420;2022-09-27T00:27:24;4.45;;;3.85;;
48963;SDS011;34776;48.180;16.420;2022-09-27T00:29:50;4.45;;;3.50;;
48963;SDS011;34776;48.180;16.420;2022-09-27T00:32:16;3.90;;;3.20;;
48963;SDS011;34776;48.180;16.420;2022-09-27T00:34:42;4.38;;;3.72;;
48963;SDS011;34776;48.180;16.420;2022-09-27T00:37:08;4.55;;;4.15;;
48963;SDS011;34776;48.180;16.420;2022-09-27T00:39:35;4.47;;;3.97;;
48963;SDS011;34776;48.180;16.420;2022-09-27T00:42:03;4.20;;;3.80;;
48963;SDS011;34776;48.180;16.420;2022-09-27T00:47:02;4.75;;;4.03;;
48963;SDS011;34776;48.180;16.420;2022-09-27T00:49:52;5.00;;;4.15;;
48963;SDS011;34776;48.180;16.420;2022-09-27T00:55:20;4.13;;;3.75;;
48963;SDS011;34776;48.180;16.420;2022-09-27T00:57:49;4.63;;;3.70;;
48963;SDS011;34776;48.180;16.420;2022-09-27T01:00:15;3.70;;;3.40;;
48963;SDS011;34776;48.180;16.420;2022-09-27T01:02:46;4.07;;;3.30;;
48963;SDS011;34776;48.180;16.420;2022-09-27T01:05:14;4.25;;;3.83;;
48963;SDS011;34776;48.180;16.420;2022-09-27T01:07:42;4.47;;;4.07;;
48963;SDS011;34776;48.180;16.420;2022-09-27T01:10:07;4.03;;;3.60;;
48963;SDS011;34776;48.180;16.420;2022-09-27T01:12:55;4.03;;;3.60;;
48963;SDS011;34776;48.180;16.420;2022-09-27T01:20:59;4.32;;;3.92;;
48963;SDS011;34776;48.180;16.420;2022-09-27T01:31:40;6.32;;;4.40;;
48963;SDS011;34776;48.180;16.420;2022-09-27T01:34:31;4.50;;;3.83;;
48963;SDS011;34776;48.180;16.420;2022-09-27T01:42:13;4.40;;;3.92;;
48963;SDS011;34776;48.180;16.420;2022-09-27T01:44:53;4.32;;;3.92;;
48963;SDS011;34776;48.180;16.420;2022-09-27T01:47:37;5.65;;;3.65;;
48963;SDS011;34776;48.180;16.420;2022-09-27T01:50:09;4.55;;;3.97;;
48963;SDS011;34776;48.180;16.420;2022-09-27T01:52:40;7.05;;;4.15;;
48963;SDS011;34776;48.180;16.420;2022-09-27T01:55:29;4.07;;;3.67;;
48963;SDS011;34776;48.180;16.420;2022-09-27T01:57:59;6.50;;;3.72;;
48963;SDS011;34776;48.180;16.420;2022-09-27T02:00:48;4.47;;;3.78;;
48963;SDS011;34776;48.180;16.420;2022-09-27T02:03:19;3.45;;;3.15;;
48963;SDS011;34776;48.180;16.420;2022-09-27T02:05:48;4.25;;;3.85;;
48963;SDS011;34776;48.180;16.420;2022-09-27T02:08:20;6.43;;;3.92;;
48963;SDS011;34776;48.180;16.420;2022-09-27T02:10:53;4.32;;;3.92;;
48963;SDS011;34776;48.180;16.420;2022-09-27T02:19:08;5.53;;;4.50;;
48963;SDS011;34776;48.180;16.420;2022-09-27T02:22:22;4.10;;;3.70;;
48963;SDS011;34776;48.180;16.420;2022-09-27T02:27:37;4.95;;;4.03;;
48963;SDS011;34776;48.180;16.420;2022-09-27T02:30:06;4.05;;;3.50;;
48963;SDS011;34776;48.180;16.420;2022-09-27T02:32:34;5.20;;;3.90;;
48963;SDS011;34776;48.180;16.420;2022-09-27T02:35:02;4.60;;;3.95;;
48963;SDS011;34776;48.180;16.420;2022-09-27T02:37:33;5.75;;;4.10;;
48963;SDS011;34776;48.180;16.420;2022-09-27T02:39:59;5.53;;;4.40;;
48963;SDS011;34776;48.180;16.420;2022-09-27T02:42:24;5.78;;;4.80;;
48963;SDS011;34776;48.180;16.420;2022-09-27T02:44:51;5.50;;;4.97;;
48963;SDS011;34776;48.180;16.420;2022-09-27T02:58:23;4.63;;;3.53;;
48963;SDS011;34776;48.180;16.420;2022-09-27T03:07:20;6.78;;;4.07;;
48963;SDS011;34776;48.180;16.420;2022-09-27T03:09:47;5.88;;;4.20;;
48963;SDS011;34776;48.180;16.420;2022-09-27T03:12:17;4.63;;;4.10;;
48963;SDS011;34776;48.180;16.420;2022-09-27T03:14:46;4.57;;;3.70;;
48963;SDS011;34776;48.180;16.420;2022-09-27T03:17:12;6.85;;;4.40;;
48963;SDS011;34776;48.180;16.420;2022-09-27T03:19:37;5.03;;;4.10;;
48963;SDS011;34776;48.180;16.420;2022-09-27T03:22:03;5.47;;;3.88;;
48963;SDS011;34776;48.180;16.420;2022-09-27T03:24:28;7.18;;;4.28;;
48963;SDS011;34776;48.180;16.420;2022-09-27T03:26:53;4.78;;;4.22;;
48963;SDS011;34776;48.180;16.420;2022-09-27T03:29:19;4.90;;;4.40;;
48963;SDS011;34776;48.180;16.420;2022-09-27T03:31:44;5.32;;;4.43;;
48963;SDS011;34776;48.180;16.420;2022-09-27T03:34:10;8.70;;;4.47;;
48963;SDS011;34776;48.180;16.420;2022-09-27T03:36:35;6.88;;;4.20;;
48963;SDS011;34776;48.180;16.420;2022-09-27T03:39:01;7.03;;;4.65;;
48963;SDS011;34776;48.180;16.420;2022-09-27T03:41:26;4.05;;;3.50;;
48963;SDS011;34776;48.180;16.420;2022-09-27T03:43:51;4.45;;;4.05;;
48963;SDS011;34776;48.180;16.420;2022-09-27T03:46:17;7.93;;;4.32;;
48963;SDS011;34776;48.180;16.420;2022-09-27T03:48:42;5.40;;;4.32;;
48963;SDS011;34776;48.180;16.420;2022-09-27T03:51:08;4.40;;;4.00;;
48963;SDS011;34776;48.180;16.420;2022-09-27T03:53:36;5.35;;;4.50;;
48963;SDS011;34776;48.180;16.420;2022-09-27T03:56:02;5.32;;;4.60;;
48963;SDS011;34776;48.180;16.420;2022-09-27T03:58:28;4.10;;;3.60;;
48963;SDS011;34776;48.180;16.420;2022-09-27T04:00:53;4.10;;;3.42;;
48963;SDS011;34776;48.180;16.420;2022-09-27T04:03:19;5.32;;;3.90;;
48963;SDS011;34776;48.180;16.420;2022-09-27T04:05:44;6.53;;;4.38;;
48963;SDS011;34776;48.180;16.420;2022-09-27T04:08:10;4.43;;;3.90;;
48963;SDS011;34776;48.180;16.420;2022-09-27T04:10:36;4.30;;;3.90;;
48963;SDS011;34776;48.180;16.420;2022-09-27T04:13:02;4.70;;;4.25;;
48963;SDS011;34776;48.180;16.420;2022-09-27T04:15:27;4.43;;;4.03;;
48963;SDS011;34776;48.180;16.420;2022-09-27T04:17:53;5.50;;;4.65;;
48963;SDS011;34776;48.180;16.420;2022-09-27T04:20:18;5.70;;;4.78;;
48963;SDS011;34776;48.180;16.420;2022-09-27T04:22:44;5.97;;;4.18;;
48963;SDS011;34776;48.180;16.420;2022-09-27T04:25:10;6.93;;;4.38;;
48963;SDS011;34776;48.180;16.420;2022-09-27T04:27:36;14.95;;;5.90;;
48963;SDS011;34776;48.180;16.420;2022-09-27T04:30:03;5.10;;;4.28;;
48963;SDS011;34776;48.180;16.420;2022-09-27T04:32:30;4.97;;;3.92;;
48963;SDS011;34776;48.180;16.420;2022-09-27T04:34:55;4.18;;;3.70;;
48963;SDS011;34776;48.180;16.420;2022-09-27T04:37:39;6.68;;;4.88;;
48963;SDS011;34776;48.180;16.420;2022-09-27T04:40:06;5.07;;;4.57;;
48963;SDS011;34776;48.180;16.420;2022-09-27T04:42:31;5.15;;;4.65;;
48963;SDS011;34776;48.180;16.420;2022-09-27T04:44:58;5.78;;;5.20;;
48963;SDS011;34776;48.180;16.420;2022-09-27T04:47:23;4.90;;;4.40;;
48963;SDS011;34776;48.180;16.420;2022-09-27T04:49:48;8.15;;;4.15;;
48963;SDS011;34776;48.180;16.420;2022-09-27T04:52:14;5.47;;;4.65;;
48963;SDS011;34776;48.180;16.420;2022-09-27T04:54:40;5.45;;;4.85;;
48963;SDS011;34776;48.180;16.420;2022-09-27T04:57:06;5.07;;;4.15;;
48963;SDS011;34776;48.180;16.420;2022-09-27T04:59:32;5.00;;;3.85;;
48963;SDS011;34776;48.180;16.420;2022-09-27T05:01:57;4.88;;;4.38;;
48963;SDS011;34776;48.180;16.420;2022-09-27T05:04:25;6.60;;;4.40;;
48963;SDS011;34776;48.180;16.420;2022-09-27T05:06:51;7.30;;;4.50;;
48963;SDS011;34776;48.180;16.420;2022-09-27T05:09:17;6.40;;;4.43;;
48963;SDS011;34776;48.180;16.420;2022-09-27T05:11:43;5.68;;;4.10;;
48963;SDS011;34776;48.180;16.420;2022-09-27T05:14:08;6.82;;;4.38;;
48963;SDS011;34776;48.180;16.420;2022-09-27T05:16:34;6.03;;;5.43;;
48963;SDS011;34776;48.180;16.420;2022-09-27T05:19:00;7.45;;;5.03;;
48963;SDS011;34776;48.180;16.420;2022-09-27T05:21:27;5.90;;;4.30;;
48963;SDS011;34776;48.180;16.420;2022-09-27T05:23:52;5.05;;;4.30;;
48963;SDS011;34776;48.180;16.420;2022-09-27T05:26:18;5.40;;;4.15;;
48963;SDS011;34776;48.180;16.420;2022-09-27T05:28:44;7.78;;;4.22;;
48963;SDS011;34776;48.180;16.420;2022-09-27T05:31:11;4.80;;;4.15;;
48963;SDS011;34776;48.180;16.420;2022-09-27T05:33:38;12.25;;;4.63;;
48963;SDS011;34776;48.180;16.420;2022-09-27T05:36:04;8.38;;;4.90;;
48963;SDS011;34776;48.180;16.420;2022-09-27T05:38:29;8.95;;;4.60;;
48963;SDS011;34776;48.180;16.420;2022-09-27T05:40:55;5.05;;;4.55;;
48963;SDS011;34776;48.180;16.420;2022-09-27T05:43:20;5.55;;;4.97;;
48963;SDS011;34776;48.180;16.420;2022-09-27T05:45:46;5.75;;;4.57;;
48963;SDS011;34776;48.180;16.420;2022-09-27T05:48:11;5.22;;;4.72;;
48963;SDS011;34776;48.180;16.420;2022-09-27T05:50:38;6.13;;;4.55;;
48963;SDS011;34776;48.180;16.420;2022-09-27T05:53:05;4.65;;;4.20;;
48963;SDS011;34776;48.180;16.420;2022-09-27T05:55:31;6.35;;;4.30;;
48963;SDS011;34776;48.180;16.420;2022-09-27T05:58:00;6.25;;;4.57;;
48963;SDS011;34776;48.180;16.420;2022-09-27T06:00:27;5.43;;;4.93;;
48963;SDS011;34776;48.180;16.420;2022-09-27T06:02:54;6.25;;;5.60;;
48963;SDS011;34776;48.180;16.420;2022-09-27T06:05:21;7.15;;;5.18;;
48963;SDS011;34776;48.180;16.420;2022-09-27T06:07:47;6.22;;;4.82;;
48963;SDS011;34776;48.180;16.420;2022-09-27T06:10:14;5.38;;;4.80;;
48963;SDS011;34776;48.180;16.420;2022-09-27T06:12:40;6.03;;;5.43;;
48963;SDS011;34776;48.180;16.420;2022-09-27T06:15:06;5.82;;;5.32;;
48963;SDS011;34776;48.180;16.420;2022-09-27T06:17:35;5.50;;;5.00;;
48963;SDS011;34776;48.180;16.420;2022-09-27T06:20:01;5.70;;;5.05;;
48963;SDS011;34776;48.180;16.420;2022-09-27T06:22:28;7.22;;;5.30;;
48963;SDS011;34776;48.180;16.420;2022-09-27T06:24:53;6.90;;;4.80;;
48963;SDS011;34776;48.180;16.420;2022-09-27T06:27:19;6.15;;;5.30;;
48963;SDS011;34776;48.180;16.420;2022-09-27T06:29:44;5.82;;;5.07;;
48963;SDS011;34776;48.180;16.420;2022-09-27T06:32:10;6.22;;;5.15;;
48963;SDS011;34776;48.180;16.420;2022-09-27T06:34:35;9.70;;;6.03;;
48963;SDS011;34776;48.180;16.420;2022-09-27T06:37:01;5.50;;;4.95;;
48963;SDS011;34776;48.180;16.420;2022-09-27T06:39:27;8.98;;;6.15;;
48963;SDS011;34776;48.180;16.420;2022-09-27T06:41:53;6.30;;;5.70;;
48963;SDS011;34776;48.180;16.420;2022-09-27T06:44:23;6.35;;;5.25;;
48963;SDS011;34776;48.180;16.420;2022-09-27T06:46:49;6.65;;;5.40;;
48963;SDS011;34776;48.180;16.420;2022-09-27T06:49:19;7.70;;;5.85;;
48963;SDS011;34776;48.180;16.420;2022-09-27T06:51:46;8.45;;;7.65;;
48963;SDS011;34776;48.180;16.420;2022-09-27T06:54:13;15.95;;;9.43;;
48963;SDS011;34776;48.180;16.420;2022-09-27T06:56:39;7.25;;;6.55;;
48963;SDS011;34776;48.180;16.420;2022-09-27T06:59:04;10.20;;;6.63;;
48963;SDS011;34776;48.180;16.420;2022-09-27T07:01:48;6.20;;;5.57;;
48963;SDS011;34776;48.180;16.420;2022-09-27T07:04:16;6.18;;;5.55;;
48963;SDS011;34776;48.180;16.420;2022-09-27T07:06:42;6.15;;;5.55;;
48963;SDS011;34776;48.180;16.420;2022-09-27T07:09:08;19.23;;;15.05;;
48963;SDS011;34776;48.180;16.420;2022-09-27T07:11:34;8.98;;;6.97;;
48963;SDS011;34776;48.180;16.420;2022-09-27T07:14:02;8.23;;;5.60;;
48963;SDS011;34776;48.180;16.420;2022-09-27T07:16:29;7.35;;;5.55;;
48963;SDS011;34776;48.180;16.420;2022-09-27T07:19:01;6.13;;;5.50;;
48963;SDS011;34776;48.180;16.420;2022-09-27T07:21:26;6.97;;;6.13;;
48963;SDS011;34776;48.180;16.420;2022-09-27T07:23:51;6.88;;;6.20;;
48963;SDS011;34776;48.180;16.420;2022-09-27T07:26:17;7.28;;;5.63;;
48963;SDS011;34776;48.180;16.420;2022-09-27T07:28:43;7.22;;;6.53;;
48963;SDS011;34776;48.180;16.420;2022-09-27T07:31:09;4.97;;;4.47;;
48963;SDS011;34776;48.180;16.420;2022-09-27T07:33:35;6.00;;;4.88;;
48963;SDS011;34776;48.180;16.420;2022-09-27T07:36:05;5.70;;;5.20;;
48963;SDS011;34776;48.180;16.420;2022-09-27T07:38:34;5.53;;;5.03;;
48963;SDS011;34776;48.180;16.420;2022-09-27T07:41:11;7.88;;;6.60;;
48963;SDS011;34776;48.180;16.420;2022-09-27T07:43:39;7.28;;;5.50;;
48963;SDS011;34776;48.180;16.420;2022-09-27T07:46:05;6.47;;;5.72;;
48963;SDS011;34776;48.180;16.420;2022-09-27T07:48:31;7.47;;;5.28;;
48963;SDS011;34776;48.180;16.420;2022-09-27T07:50:57;7.00;;;6.38;;
48963;SDS011;34776;48.180;16.420;2022-09-27T07:53:22;7.38;;;6.68;;
48963;SDS011;34776;48.180;16.420;2022-09-27T07:55:48;5.72;;;5.22;;
48963;SDS011;34776;48.180;16.420;2022-09-27T07:58:16;5.78;;;4.85;;
48963;SDS011;34776;48.180;16.420;2022-09-27T08:00:42;5.15;;;4.65;;
48963;SDS011;34776;48.180;16.420;2022-09-27T08:03:12;6.20;;;5.18;;
48963;SDS011;34776;48.180;16.420;2022-09-27T08:05:40;5.43;;;4.93;;
48963;SDS011;34776;48.180;16.420;2022-09-27T08:08:06;10.32;;;6.20;;
48963;SDS011;34776;48.180;16.420;2022-09-27T08:10:32;6.85;;;6.22;;
48963;SDS011;34776;48.180;16.420;2022-09-27T08:13:02;5.68;;;5.18;;
48963;SDS011;34776;48.180;16.420;2022-09-27T08:15:32;6.32;;;5.63;;
48963;SDS011;34776;48.180;16.420;2022-09-27T08:18:03;9.60;;;7.07;;
48963;SDS011;34776;48.180;16.420;2022-09-27T08:20:30;9.32;;;7.10;;
48963;SDS011;34776;48.180;16.420;2022-09-27T08:22:56;8.82;;;7.18;;
48963;SDS011;34776;48.180;16.420;2022-09-27T08:25:21;8.68;;;7.70;;
48963;SDS011;34776;48.180;16.420;2022-09-27T08:27:58;13.32;;;8.20;;
48963;SDS011;34776;48.180;16.420;2022-09-27T08:30:25;10.93;;;9.07;;
48963;SDS011;34776;48.180;16.420;2022-09-27T08:32:55;8.68;;;7.85;;
48963;SDS011;34776;48.180;16.420;2022-09-27T08:35:22;15.50;;;8.70;;
48963;SDS011;34776;48.180;16.420;2022-09-27T08:37:57;10.95;;;8.70;;
48963;SDS011;34776;48.180;16.420;2022-09-27T08:41:15;12.52;;;8.55;;
48963;SDS011;34776;48.180;16.420;2022-09-27T08:46:57;11.68;;;6.43;;
48963;SDS011;34776;48.180;16.420;2022-09-27T08:49:15;9.00;;;5.35;;
48963;SDS011;34776;48.180;16.420;2022-09-27T08:51:47;9.88;;;4.90;;
48963;SDS011;34776;48.180;16.420;2022-09-27T08:54:19;7.65;;;4.18;;
48963;SDS011;34776;48.180;16.420;2022-09-27T08:56:48;6.30;;;4.20;;
48963;SDS011;34776;48.180;16.420;2022-09-27T08:59:16;4.97;;;3.85;;
48963;SDS011;34776;48.180;16.420;2022-09-27T09:01:50;8.40;;;4.30;;
48963;SDS011;34776;48.180;16.420;2022-09-27T09:04:23;7.20;;;4.03;;
48963;SDS011;34776;48.180;16.420;2022-09-27T09:21:10;20.98;;;5.00;;
48963;SDS011;34776;48.180;16.420;2022-09-27T09:32:06;4.30;;;3.58;;
48963;SDS011;34776;48.180;16.420;2022-09-27T09:37:02;3.80;;;3.00;;
48963;SDS011;34776;48.180;16.420;2022-09-27T09:40:18;3.90;;;3.30;;
48963;SDS011;34776;48.180;16.420;2022-09-27T09:42:38;6.97;;;3.70;;
48963;SDS011;34776;48.180;16.420;2022-09-27T09:50:49;13.63;;;4.57;;
48963;SDS011;34776;48.180;16.420;2022-09-27T09:53:40;3.75;;;3.30;;
48963;SDS011;34776;48.180;16.420;2022-09-27T09:58:47;5.05;;;3.25;;
48963;SDS011;34776;48.180;16.420;2022-09-27T10:01:18;8.02;;;3.40;;
48963;SDS011;34776;48.180;16.420;2022-09-27T10:03:46;6.20;;;3.33;;
48963;SDS011;34776;48.180;16.420;2022-09-27T10:06:12;5.03;;;3.20;;
48963;SDS011;34776;48.180;16.420;2022-09-27T10:08:40;4.05;;;3.10;;
48963;SDS011;34776;48.180;16.420;2022-09-27T10:11:06;3.33;;;2.67;;
48963;SDS011;34776;48.180;16.420;2022-09-27T10:13:43;3.58;;;3.00;;
48963;SDS011;34776;48.180;16.420;2022-09-27T10:16:09;3.85;;;2.88;;
48963;SDS011;34776;48.180;16.420;2022-09-27T10:18:38;2.85;;;2.40;;
48963;SDS011;34776;48.180;16.420;2022-09-27T10:21:06;6.20;;;5.60;;
48963;SDS011;34776;48.180;16.420;2022-09-27T10:24:00;5.22;;;3.75;;
48963;SDS011;34776;48.180;16.420;2022-09-27T10:26:25;4.68;;;3.67;;
48963;SDS011;34776;48.180;16.420;2022-09-27T10:28:51;3.38;;;3.08;;
48963;SDS011;34776;48.180;16.420;2022-09-27T10:31:17;7.53;;;3.63;;
48963;SDS011;34776;48.180;16.420;2022-09-27T10:33:54;4.20;;;3.70;;
48963;SDS011;34776;48.180;16.420;2022-09-27T10:36:24;3.50;;;3.20;;
48963;SDS011;34776;48.180;16.420;2022-09-27T10:38:56;3.20;;;2.90;;
48963;SDS011;34776;48.180;16.420;2022-09-27T10:41:34;4.43;;;2.92;;
48963;SDS011;34776;48.180;16.420;2022-09-27T10:46:45;3.22;;;2.83;;
48963;SDS011;34776;48.180;16.420;2022-09-27T10:51:57;4.78;;;2.88;;
48963;SDS011;34776;48.180;16.420;2022-09-27T10:54:25;95.63;;;7.53;;
48963;SDS011;34776;48.180;16.420;2022-09-27T10:56:54;18.90;;;4.00;;
48963;SDS011;34776;48.180;16.420;2022-09-27T10:59:23;21.52;;;3.85;;
48963;SDS011;34776;48.180;16.420;2022-09-27T11:01:51;15.48;;;3.50;;
48963;SDS011;34776;48.180;16.420;2022-09-27T11:07:33;8.98;;;2.92;;
48963;SDS011;34776;48.180;16.420;2022-09-27T11:10:00;2.25;;;2.05;;
48963;SDS011;34776;48.180;16.420;2022-09-27T11:12:29;2.05;;;1.80;;
48963;SDS011;34776;48.180;16.420;2022-09-27T11:15:06;3.85;;;2.30;;
48963;SDS011;34776;48.180;16.420;2022-09-27T11:17:55;19.20;;;3.78;;
48963;SDS011;34776;48.180;16.420;2022-09-27T11:20:54;6.30;;;2.88;;
48963;SDS011;34776;48.180;16.420;2022-09-27T11:26:44;23.45;;;5.15;;
48963;SDS011;34776;48.180;16.420;2022-09-27T11:29:52;9.90;;;2.97;;
48963;SDS011;34776;48.180;16.420;2022-09-27T11:38:25;20.30;;;4.43;;
48963;SDS011;34776;48.180;16.420;2022-09-27T11:57:22;4.13;;;1.65;;
48963;SDS011;34776;48.180;16.420;2022-09-27T12:00:06;3.25;;;1.67;;
48963;SDS011;34776;48.180;16.420;2022-09-27T12:05:29;3.50;;;1.70;;
48963;SDS011;34776;48.180;16.420;2022-09-27T12:08:19;2.80;;;1.70;;
48963;SDS011;34776;48.180;16.420;2022-09-27T12:11:11;4.25;;;1.77;;
48963;SDS011;34776;48.180;16.420;2022-09-27T12:13:49;6.47;;;3.13;;
48963;SDS011;34776;48.180;16.420;2022-09-27T12:16:19;1.83;;;1.70;;
48963;SDS011;34776;48.180;16.420;2022-09-27T12:18:47;4.45;;;1.85;;
48963;SDS011;34776;48.180;16.420;2022-09-27T12:21:14;6.35;;;2.58;;
48963;SDS011;34776;48.180;16.420;2022-09-27T12:23:54;1.67;;;1.58;;
48963;SDS011;34776;48.180;16.420;2022-09-27T12:31:55;9.88;;;2.40;;
48963;SDS011;34776;48.180;16.420;2022-09-27T12:37:13;7.35;;;1.85;;
48963;SDS011;34776;48.180;16.420;2022-09-27T12:39:54;4.07;;;2.97;;
48963;SDS011;34776;48.180;16.420;2022-09-27T12:42:42;37.97;;;8.48;;
48963;SDS011;34776;48.180;16.420;2022-09-27T12:45:13;28.90;;;5.35;;
48963;SDS011;34776;48.180;16.420;2022-09-27T12:52:45;33.17;;;5.93;;
48963;SDS011;34776;48.180;16.420;2022-09-27T13:03:35;19.75;;;3.53;;
48963;SDS011;34776;48.180;16.420;2022-09-27T13:14:19;9.27;;;1.88;;
48963;SDS011;34776;48.180;16.420;2022-09-27T13:16:48;10.18;;;3.08;;
48963;SDS011;34776;48.180;16.420;2022-09-27T13:22:02;17.35;;;2.45;;
48963;SDS011;34776;48.180;16.420;2022-09-27T13:24:30;5.43;;;1.85;;
48963;SDS011;34776;48.180;16.420;2022-09-27T13:26:56;14.13;;;2.53;;
48963;SDS011;34776;48.180;16.420;2022-09-27T13:29:26;25.25;;;4.07;;
48963;SDS011;34776;48.180;16.420;2022-09-27T13:42:39;10.05;;;2.15;;
48963;SDS011;34776;48.180;16.420;2022-09-27T13:45:22;20.10;;;3.15;;
48963;SDS011;34776;48.180;16.420;2022-09-27T13:47:59;31.30;;;3.83;;
48963;SDS011;34776;48.180;16.420;2022-09-27T13:52:56;20.92;;;3.17;;
48963;SDS011;34776;48.180;16.420;2022-09-27T13:56:00;4.20;;;1.60;;
48963;SDS011;34776;48.180;16.420;2022-09-27T13:58:33;10.55;;;1.90;;
48963;SDS011;34776;48.180;16.420;2022-09-27T14:01:02;2.15;;;1.52;;
48963;SDS011;34776;48.180;16.420;2022-09-27T14:03:41;1.67;;;1.58;;
48963;SDS011;34776;48.180;16.420;2022-09-27T14:06:14;4.00;;;1.65;;
48963;SDS011;34776;48.180;16.420;2022-09-27T14:09:02;5.75;;;1.50;;
48963;SDS011;34776;48.180;16.420;2022-09-27T14:11:31;3.55;;;1.70;;
48963;SDS011;34776;48.180;16.420;2022-09-27T14:14:01;21.80;;;3.15;;
48963;SDS011;34776;48.180;16.420;2022-09-27T14:16:31;3.30;;;1.67;;
48963;SDS011;34776;48.180;16.420;2022-09-27T14:19:00;8.70;;;1.38;;
48963;SDS011;34776;48.180;16.420;2022-09-27T14:21:36;4.45;;;1.10;;
48963;SDS011;34776;48.180;16.420;2022-09-27T14:26:49;2.83;;;1.17;;
48963;SDS011;34776;48.180;16.420;2022-09-27T14:29:29;4.38;;;1.20;;
48963;SDS011;34776;48.180;16.420;2022-09-27T14:32:03;8.07;;;2.03;;
48963;SDS011;34776;48.180;16.420;2022-09-27T14:34:30;3.72;;;1.33;;
48963;SDS011;34776;48.180;16.420;2022-09-27T14:36:55;1.35;;;0.98;;
48963;SDS011;34776;48.180;16.420;2022-09-27T14:39:39;3.10;;;0.85;;
48963;SDS011;34776;48.180;16.420;2022-09-27T14:42:15;3.00;;;2.20;;
48963;SDS011;34776;48.180;16.420;2022-09-27T14:44:47;2.53;;;0.98;;
48963;SDS011;34776;48.180;16.420;2022-09-27T14:47:24;3.40;;;1.13;;
48963;SDS011;34776;48.180;16.420;2022-09-27T14:49:58;5.70;;;1.10;;
48963;SDS011;34776;48.180;16.420;2022-09-27T14:52:29;1.30;;;0.85;;
48963;SDS011;34776;48.180;16.420;2022-09-27T14:55:05;14.60;;;2.67;;
48963;SDS011;34776;48.180;16.420;2022-09-27T14:57:33;3.30;;;1.55;;
48963;SDS011;34776;48.180;16.420;2022-09-27T15:00:08;2.13;;;1.48;;
48963;SDS011;34776;48.180;16.420;2022-09-27T15:02:39;12.50;;;1.83;;
48963;SDS011;34776;48.180;16.420;2022-09-27T15:05:11;3.55;;;1.13;;
48963;SDS011;34776;48.180;16.420;2022-09-27T15:07:39;1.35;;;0.98;;
48963;SDS011;34776;48.180;16.420;2022-09-27T15:10:05;4.07;;;1.02;;
48963;SDS011;34776;48.180;16.420;2022-09-27T15:12:36;4.90;;;1.40;;
48963;SDS011;34776;48.180;16.420;2022-09-27T15:15:01;1.75;;;1.10;;
48963;SDS011;34776;48.180;16.420;2022-09-27T15:17:27;1.75;;;1.25;;
48963;SDS011;34776;48.180;16.420;2022-09-27T15:19:56;3.75;;;1.27;;
48963;SDS011;34776;48.180;16.420;2022-09-27T15:22:31;1.42;;;1.02;;
48963;SDS011;34776;48.180;16.420;2022-09-27T15:25:04;1.58;;;1.23;;
48963;SDS011;34776;48.180;16.420;2022-09-27T15:27:32;1.67;;;0.90;;
48963;SDS011;34776;48.180;16.420;2022-09-27T15:29:57;2.22;;;0.98;;
48963;SDS011;34776;48.180;16.420;2022-09-27T15:32:24;6.35;;;1.38;;
48963;SDS011;34776;48.180;16.420;2022-09-27T15:34:52;2.83;;;1.30;;
48963;SDS011;34776;48.180;16.420;2022-09-27T15:37:23;1.42;;;1.10;;
48963;SDS011;34776;48.180;16.420;2022-09-27T15:39:52;1.23;;;1.10;;
48963;SDS011;34776;48.180;16.420;2022-09-27T15:42:17;0.98;;;0.93;;
48963;SDS011;34776;48.180;16.420;2022-09-27T15:49:58;3.57;;;2.50;;
48963;SDS011;34776;48.180;16.420;2022-09-27T15:52:45;1.65;;;1.20;;
48963;SDS011;34776;48.180;16.420;2022-09-27T15:55:19;5.90;;;2.45;;
48963;SDS011;34776;48.180;16.420;2022-09-27T15:57:50;2.83;;;1.20;;
48963;SDS011;34776;48.180;16.420;2022-09-27T16:00:19;2.55;;;1.00;;
48963;SDS011;34776;48.180;16.420;2022-09-27T16:02:45;0.98;;;0.85;;
48963;SDS011;34776;48.180;16.420;2022-09-27T16:05:10;6.18;;;1.35;;
48963;SDS011;34776;48.180;16.420;2022-09-27T16:07:36;2.42;;;1.17;;
48963;SDS011;34776;48.180;16.420;2022-09-27T16:10:24;1.75;;;1.10;;
48963;SDS011;34776;48.180;16.420;2022-09-27T16:12:53;2.17;;;0.93;;
48963;SDS011;34776;48.180;16.420;2022-09-27T16:15:18;2.10;;;1.27;;
48963;SDS011;34776;48.180;16.420;2022-09-27T16:17:44;2.83;;;1.25;;
48963;SDS011;34776;48.180;16.420;2022-09-27T16:20:19;3.25;;;1.10;;
48963;SDS011;34776;48.180;16.420;2022-09-27T16:22:49;1.73;;;1.13;;
48963;SDS011;34776;48.180;16.420;2022-09-27T16:25:14;1.27;;;1.10;;
48963;SDS011;34776;48.180;16.420;2022-09-27T16:27:40;2.70;;;1.60;;
48963;SDS011;34776;48.180;16.420;2022-09-27T16:30:06;14.30;;;2.15;;
48963;SDS011;34776;48.180;16.420;2022-09-27T16:32:32;2.72;;;1.20;;
48963;SDS011;34776;48.180;16.420;2022-09-27T16:34:59;2.35;;;1.38;;
48963;SDS011;34776;48.180;16.420;2022-09-27T16:37:25;4.30;;;1.52;;
48963;SDS011;34776;48.180;16.420;2022-09-27T16:39:51;2.45;;;1.30;;
48963;SDS011;34776;48.180;16.420;2022-09-27T16:42:17;1.10;;;0.90;;
48963;SDS011;34776;48.180;16.420;2022-09-27T16:44:42;3.22;;;1.20;;
48963;SDS011;34776;48.180;16.420;2022-09-27T16:47:07;2.67;;;1.30;;
48963;SDS011;34776;48.180;16.420;2022-09-27T16:49:33;1.13;;;1.02;;
48963;SDS011;34776;48.180;16.420;2022-09-27T16:52:17;1.65;;;0.98;;
48963;SDS011;34776;48.180;16.420;2022-09-27T16:54:42;5.50;;;1.00;;
48963;SDS011;34776;48.180;16.420;2022-09-27T16:57:08;1.45;;;1.10;;
48963;SDS011;34776;48.180;16.420;2022-09-27T16:59:33;2.40;;;1.40;;
48963;SDS011;34776;48.180;16.420;2022-09-27T17:01:59;2.63;;;1.20;;
48963;SDS011;34776;48.180;16.420;2022-09-27T17:04:25;6.32;;;3.67;;
48963;SDS011;34776;48.180;16.420;2022-09-27T17:06:52;1.77;;;1.63;;
48963;SDS011;34776;48.180;16.420;2022-09-27T17:09:19;2.72;;;1.55;;
48963;SDS011;34776;48.180;16.420;2022-09-27T17:11:45;1.88;;;1.17;;
48963;SDS011;34776;48.180;16.420;2022-09-27T17:14:10;1.40;;;1.23;;
48963;SDS011;34776;48.180;16.420;2022-09-27T17:16:41;1.85;;;1.00;;
48963;SDS011;34776;48.180;16.420;2022-09-27T17:19:07;1.95;;;1.20;;
48963;SDS011;34776;48.180;16.420;2022-09-27T17:21:33;2.15;;;1.27;;
48963;SDS011;34776;48.180;16.420;2022-09-27T17:24:00;1.17;;;1.08;;
48963;SDS011;34776;48.180;16.420;2022-09-27T17:26:26;1.63;;;1.20;;
48963;SDS011;34776;48.180;16.420;2022-09-27T17:28:54;1.05;;;1.05;;
48963;SDS011;34776;48.180;16.420;2022-09-27T17:31:21;1.10;;;1.00;;
48963;SDS011;34776;48.180;16.420;2022-09-27T17:33:48;1.10;;;1.00;;
48963;SDS011;34776;48.180;16.420;2022-09-27T17:36:17;1.85;;;1.20;;
48963;SDS011;34776;48.180;16.420;2022-09-27T17:38:44;1.35;;;1.25;;
48963;SDS011;34776;48.180;16.420;2022-09-27T17:41:15;3.20;;;1.50;;
48963;SDS011;34776;48.180;16.420;2022-09-27T17:43:42;1.58;;;1.13;;
48963;SDS011;34776;48.180;16.420;2022-09-27T17:46:19;1.55;;;1.02;;